sensor_id;sensor_type;location;lat;lon;timestamp;temperature;humidity
16767;DHT22;8501;49.926;8.404;2024-01-10T00:01:13;-2.50;99.90
16767;DHT22;8501;49.926;8.404;2024-01-10T00:03:39;-2.60;99.90
16767;DHT22;8501;49.926;8.404;2024-01-10T00:06:05;-2.50;99.90
16767;DHT22;8501;49.926;8.404;2024-01-10T00:08:31;-2.50;99.90
16767;DHT22;8501;49.926;8.404;2024-01-10T00:10:56;-2.60;99.90
16767;DHT22;8501;49.926;8.404;2024-01-10T00:13:22;-2.50;99.90
16767;DHT22;8501;49.926;8.404;2024-01-10T00:15:48;-2.60;99.90
16767;DHT22;8501;49.926;8.404;2024-01-10T00:18:14;-2.60;99.90
16767;DHT22;8501;49.926;8.404;2024-01-10T00:20:40;-2.60;99.90
16767;DHT22;8501;49.926;8.404;2024-01-10T00:23:06;-2.60;99.90
16767;DHT22;8501;49.926;8.404;2024-01-10T00:25:32;-2.70;99.90
16767;DHT22;8501;49.926;8.404;2024-01-10T00:27:58;-2.70;99.90
16767;DHT22;8501;49.926;8.404;2024-01-10T00:30:24;-2.90;99.90
16767;DHT22;8501;49.926;8.404;2024-01-10T00:32:49;-2.90;99.90
16767;DHT22;8501;49.926;8.404;2024-01-10T00:35:15;-2.80;99.90
16767;DHT22;8501;49.926;8.404;2024-01-10T00:37:40;-2.80;99.90
16767;DHT22;8501;49.926;8.404;2024-01-10T00:40:06;-2.80;99.90
16767;DHT22;8501;49.926;8.404;2024-01-10T00:42:33;-2.70;99.90
16767;DHT22;8501;49.926;8.404;2024-01-10T00:44:58;-2.70;99.90
16767;DHT22;8501;49.926;8.404;2024-01-10T00:47:24;-2.80;99.90
16767;DHT22;8501;49.926;8.404;2024-01-10T00:49:49;-2.90;99.90
16767;DHT22;8501;49.926;8.404;2024-01-10T00:52:15;-2.80;99.90
16767;DHT22;8501;49.926;8.404;2024-01-10T00:54:40;-2.80;99.90
16767;DHT22;8501;49.926;8.404;2024-01-10T00:57:06;-2.80;99.90
16767;DHT22;8501;49.926;8.404;2024-01-10T00:59:31;-2.70;99.90
16767;DHT22;8501;49.926;8.404;2024-01-10T01:01:57;-2.70;99.90
16767;DHT22;8501;49.926;8.404;2024-01-10T01:04:22;-2.70;99.90
16767;DHT22;8501;49.926;8.404;2024-01-10T01:06:48;-2.80;99.90
16767;DHT22;8501;49.926;8.404;2024-01-10T01:09:13;-2.80;99.90
16767;DHT22;8501;49.926;8.404;2024-01-10T01:11:41;-2.80;99.90
16767;DHT22;8501;49.926;8.404;2024-01-10T01:14:06;-2.90;99.90
16767;DHT22;8501;49.926;8.404;2024-01-10T01:16:33;-3.00;99.90
16767;DHT22;8501;49.926;8.404;2024-01-10T01:18:58;-2.90;99.90
16767;DHT22;8501;49.926;8.404;2024-01-10T01:21:23;-2.90;99.90
16767;DHT22;8501;49.926;8.404;2024-01-10T01:23:49;-2.90;99.90
16767;DHT22;8501;49.926;8.404;2024-01-10T01:26:14;-2.90;99.90
16767;DHT22;8501;49.926;8.404;2024-01-10T01:28:40;-2.90;99.90
16767;DHT22;8501;49.926;8.404;2024-01-10T01:31:05;-3.00;99.90
16767;DHT22;8501;49.926;8.404;2024-01-10T01:33:32;-3.00;99.90
16767;DHT22;8501;49.926;8.404;2024-01-10T01:35:57;-3.00;99.90
16767;DHT22;8501;49.926;8.404;2024-01-10T01:38:23;-3.00;99.90
16767;DHT22;8501;49.926;8.404;2024-01-10T01:40:48;-3.10;99.90
16767;DHT22;8501;49.926;8.404;2024-01-10T01:43:20;-3.10;99.90
16767;DHT22;8501;49.926;8.404;2024-01-10T01:45:47;-3.10;99.90
16767;DHT22;8501;49.926;8.404;2024-01-10T01:48:15;-3.00;99.90
16767;DHT22;8501;49.926;8.404;2024-01-10T01:50:41;-3.00;99.90
16767;DHT22;8501;49.926;8.404;2024-01-10T01:53:06;-3.00;99.90
16767;DHT22;8501;49.926;8.404;2024-01-10T01:55:33;-3.10;99.90
16767;DHT22;8501;49.926;8.404;2024-01-10T01:57:58;-3.10;99.90
16767;DHT22;8501;49.926;8.404;2024-01-10T02:00:24;-3.10;99.90
16767;DHT22;8501;49.926;8.404;2024-01-10T02:02:50;-3.10;99.90
16767;DHT22;8501;49.926;8.404;2024-01-10T02:05:15;-3.20;99.90
16767;DHT22;8501;49.926;8.404;2024-01-10T02:07:41;-3.20;99.90
16767;DHT22;8501;49.926;8.404;2024-01-10T02:10:07;-3.10;99.90
16767;DHT22;8501;49.926;8.404;2024-01-10T02:12:32;-3.20;99.90
16767;DHT22;8501;49.926;8.404;2024-01-10T02:14:59;-3.20;99.90
16767;DHT22;8501;49.926;8.404;2024-01-10T02:17:25;-3.20;99.90
16767;DHT22;8501;49.926;8.404;2024-01-10T02:20:10;-3.20;99.90
16767;DHT22;8501;49.926;8.404;2024-01-10T02:22:36;-3.30;99.90
16767;DHT22;8501;49.926;8.404;2024-01-10T02:25:11;-3.40;99.90
16767;DHT22;8501;49.926;8.404;2024-01-10T02:27:37;-3.40;99.90
16767;DHT22;8501;49.926;8.404;2024-01-10T02:30:04;-3.40;99.90
16767;DHT22;8501;49.926;8.404;2024-01-10T02:32:30;-3.40;99.90
16767;DHT22;8501;49.926;8.404;2024-01-10T02:35:03;-3.50;99.90
16767;DHT22;8501;49.926;8.404;2024-01-10T02:37:28;-3.60;99.90
16767;DHT22;8501;49.926;8.404;2024-01-10T02:39:54;-3.50;99.90
16767;DHT22;8501;49.926;8.404;2024-01-10T02:42:19;-3.60;99.90
16767;DHT22;8501;49.926;8.404;2024-01-10T02:44:45;-3.60;99.90
16767;DHT22;8501;49.926;8.404;2024-01-10T02:47:11;-3.60;99.90
16767;DHT22;8501;49.926;8.404;2024-01-10T02:49:37;-3.60;99.90
16767;DHT22;8501;49.926;8.404;2024-01-10T02:52:03;-3.60;99.90
16767;DHT22;8501;49.926;8.404;2024-01-10T02:54:28;-3.70;99.90
16767;DHT22;8501;49.926;8.404;2024-01-10T02:56:54;-3.80;99.90
16767;DHT22;8501;49.926;8.404;2024-01-10T02:59:19;-3.80;99.90
16767;DHT22;8501;49.926;8.404;2024-01-10T03:01:45;-3.80;99.90
16767;DHT22;8501;49.926;8.404;2024-01-10T03:04:10;-3.80;99.90
16767;DHT22;8501;49.926;8.404;2024-01-10T03:06:36;-3.70;99.90
16767;DHT22;8501;49.926;8.404;2024-01-10T03:09:02;-3.70;99.90
16767;DHT22;8501;49.926;8.404;2024-01-10T03:11:28;-3.60;99.90
16767;DHT22;8501;49.926;8.404;2024-01-10T03:14:10;-3.70;99.90
16767;DHT22;8501;49.926;8.404;2024-01-10T03:16:36;-3.70;99.90
16767;DHT22;8501;49.926;8.404;2024-01-10T03:19:02;-3.80;99.90
16767;DHT22;8501;49.926;8.404;2024-01-10T03:21:28;-3.80;99.90
16767;DHT22;8501;49.926;8.404;2024-01-10T03:23:57;-3.80;99.90
16767;DHT22;8501;49.926;8.404;2024-01-10T03:26:23;-3.80;99.90
16767;DHT22;8501;49.926;8.404;2024-01-10T03:28:49;-3.80;99.90
16767;DHT22;8501;49.926;8.404;2024-01-10T03:31:15;-4.00;99.90
16767;DHT22;8501;49.926;8.404;2024-01-10T03:33:41;-4.10;99.90
16767;DHT22;8501;49.926;8.404;2024-01-10T03:36:08;-3.90;99.90
16767;DHT22;8501;49.926;8.404;2024-01-10T03:38:34;-4.00;99.90
16767;DHT22;8501;49.926;8.404;2024-01-10T03:40:59;-3.90;99.90
16767;DHT22;8501;49.926;8.404;2024-01-10T03:43:25;-3.80;99.90
16767;DHT22;8501;49.926;8.404;2024-01-10T03:45:50;-3.80;99.90
16767;DHT22;8501;49.926;8.404;2024-01-10T03:48:16;-3.80;99.90
16767;DHT22;8501;49.926;8.404;2024-01-10T03:50:41;-3.70;99.90
16767;DHT22;8501;49.926;8.404;2024-01-10T03:53:07;-3.70;99.90
16767;DHT22;8501;49.926;8.404;2024-01-10T03:55:32;-3.70;99.90
16767;DHT22;8501;49.926;8.404;2024-01-10T03:57:59;-3.80;99.90
16767;DHT22;8501;49.926;8.404;2024-01-10T04:00:25;-3.80;99.90
16767;DHT22;8501;49.926;8.404;2024-01-10T04:02:51;-3.80;99.90
16767;DHT22;8501;49.926;8.404;2024-01-10T04:05:16;-3.80;99.90
16767;DHT22;8501;49.926;8.404;2024-01-10T04:07:42;-3.80;99.90
16767;DHT22;8501;49.926;8.404;2024-01-10T04:10:11;-3.80;99.90
16767;DHT22;8501;49.926;8.404;2024-01-10T04:12:39;-3.80;99.90
16767;DHT22;8501;49.926;8.404;2024-01-10T04:15:05;-3.80;99.90
16767;DHT22;8501;49.926;8.404;2024-01-10T04:17:31;-3.80;99.90
16767;DHT22;8501;49.926;8.404;2024-01-10T04:19:57;-3.90;99.90
16767;DHT22;8501;49.926;8.404;2024-01-10T04:22:24;-3.90;99.90
16767;DHT22;8501;49.926;8.404;2024-01-10T04:24:49;-3.90;99.90
16767;DHT22;8501;49.926;8.404;2024-01-10T04:27:15;-4.00;99.90
16767;DHT22;8501;49.926;8.404;2024-01-10T04:29:41;-3.90;99.90
16767;DHT22;8501;49.926;8.404;2024-01-10T04:32:06;-4.00;99.90
16767;DHT22;8501;49.926;8.404;2024-01-10T04:34:32;-3.90;99.90
16767;DHT22;8501;49.926;8.404;2024-01-10T04:36:58;-4.00;99.90
16767;DHT22;8501;49.926;8.404;2024-01-10T04:39:23;-4.00;99.90
16767;DHT22;8501;49.926;8.404;2024-01-10T04:41:49;-3.90;99.90
16767;DHT22;8501;49.926;8.404;2024-01-10T04:44:14;-3.90;99.90
16767;DHT22;8501;49.926;8.404;2024-01-10T04:46:40;-3.90;99.90
16767;DHT22;8501;49.926;8.404;2024-01-10T04:49:06;-3.80;99.90
16767;DHT22;8501;49.926;8.404;2024-01-10T04:51:33;-3.80;99.90
16767;DHT22;8501;49.926;8.404;2024-01-10T04:53:58;-3.70;99.90
16767;DHT22;8501;49.926;8.404;2024-01-10T04:56:24;-3.80;99.90
16767;DHT22;8501;49.926;8.404;2024-01-10T04:58:50;-3.80;99.90
16767;DHT22;8501;49.926;8.404;2024-01-10T05:01:16;-3.90;99.90
16767;DHT22;8501;49.926;8.404;2024-01-10T05:03:41;-4.00;99.90
16767;DHT22;8501;49.926;8.404;2024-01-10T05:06:07;-4.00;99.90
16767;DHT22;8501;49.926;8.404;2024-01-10T05:08:32;-3.90;99.90
16767;DHT22;8501;49.926;8.404;2024-01-10T05:10:58;-3.80;99.90
16767;DHT22;8501;49.926;8.404;2024-01-10T05:13:23;-3.80;99.90
16767;DHT22;8501;49.926;8.404;2024-01-10T05:15:49;-3.90;99.90
16767;DHT22;8501;49.926;8.404;2024-01-10T05:18:15;-3.90;99.90
16767;DHT22;8501;49.926;8.404;2024-01-10T05:20:41;-4.00;99.90
16767;DHT22;8501;49.926;8.404;2024-01-10T05:23:07;-4.00;99.90
16767;DHT22;8501;49.926;8.404;2024-01-10T05:25:32;-3.90;99.90
16767;DHT22;8501;49.926;8.404;2024-01-10T05:27:58;-4.00;99.90
16767;DHT22;8501;49.926;8.404;2024-01-10T05:30:24;-4.10;99.90
16767;DHT22;8501;49.926;8.404;2024-01-10T05:32:49;-4.10;99.90
16767;DHT22;8501;49.926;8.404;2024-01-10T05:35:15;-4.10;99.90
16767;DHT22;8501;49.926;8.404;2024-01-10T05:37:40;-4.10;99.90
16767;DHT22;8501;49.926;8.404;2024-01-10T05:40:06;-4.00;99.90
16767;DHT22;8501;49.926;8.404;2024-01-10T05:42:32;-3.90;99.90
16767;DHT22;8501;49.926;8.404;2024-01-10T05:44:59;-3.90;99.90
16767;DHT22;8501;49.926;8.404;2024-01-10T05:47:24;-3.90;99.90
16767;DHT22;8501;49.926;8.404;2024-01-10T05:49:51;-3.90;99.90
16767;DHT22;8501;49.926;8.404;2024-01-10T05:52:18;-3.90;99.90
16767;DHT22;8501;49.926;8.404;2024-01-10T05:54:44;-3.90;99.90
16767;DHT22;8501;49.926;8.404;2024-01-10T05:57:09;-3.80;99.90
16767;DHT22;8501;49.926;8.404;2024-01-10T05:59:35;-3.80;99.90
16767;DHT22;8501;49.926;8.404;2024-01-10T06:02:01;-3.80;99.90
16767;DHT22;8501;49.926;8.404;2024-01-10T06:04:28;-3.70;99.90
16767;DHT22;8501;49.926;8.404;2024-01-10T06:06:56;-3.90;99.90
16767;DHT22;8501;49.926;8.404;2024-01-10T06:09:22;-4.00;99.90
16767;DHT22;8501;49.926;8.404;2024-01-10T06:11:48;-4.00;99.90
16767;DHT22;8501;49.926;8.404;2024-01-10T06:14:14;-4.10;99.90
16767;DHT22;8501;49.926;8.404;2024-01-10T06:16:39;-4.00;99.90
16767;DHT22;8501;49.926;8.404;2024-01-10T06:19:05;-4.10;99.90
16767;DHT22;8501;49.926;8.404;2024-01-10T06:21:31;-4.10;99.90
16767;DHT22;8501;49.926;8.404;2024-01-10T06:23:56;-4.10;99.90
16767;DHT22;8501;49.926;8.404;2024-01-10T06:26:22;-4.00;99.90
16767;DHT22;8501;49.926;8.404;2024-01-10T06:28:47;-4.10;99.90
16767;DHT22;8501;49.926;8.404;2024-01-10T06:31:13;-4.20;99.90
16767;DHT22;8501;49.926;8.404;2024-01-10T06:33:38;-4.20;99.90
16767;DHT22;8501;49.926;8.404;2024-01-10T06:36:04;-4.20;99.90
16767;DHT22;8501;49.926;8.404;2024-01-10T06:38:30;-4.20;99.90
16767;DHT22;8501;49.926;8.404;2024-01-10T06:40:56;-4.20;99.90
16767;DHT22;8501;49.926;8.404;2024-01-10T06:43:21;-4.30;99.90
16767;DHT22;8501;49.926;8.404;2024-01-10T06:45:47;-4.30;99.90
16767;DHT22;8501;49.926;8.404;2024-01-10T06:48:13;-4.40;99.90
16767;DHT22;8501;49.926;8.404;2024-01-10T06:50:39;-4.40;99.90
16767;DHT22;8501;49.926;8.404;2024-01-10T06:53:04;-4.40;99.90
16767;DHT22;8501;49.926;8.404;2024-01-10T06:55:30;-4.40;99.90
16767;DHT22;8501;49.926;8.404;2024-01-10T06:57:55;-4.30;99.90
16767;DHT22;8501;49.926;8.404;2024-01-10T07:00:22;-4.30;99.90
16767;DHT22;8501;49.926;8.404;2024-01-10T07:02:48;-4.10;99.90
16767;DHT22;8501;49.926;8.404;2024-01-10T07:05:14;-4.10;99.90
16767;DHT22;8501;49.926;8.404;2024-01-10T07:07:40;-4.00;99.90
16767;DHT22;8501;49.926;8.404;2024-01-10T07:10:06;-4.10;99.90
16767;DHT22;8501;49.926;8.404;2024-01-10T07:12:33;-4.20;99.90
16767;DHT22;8501;49.926;8.404;2024-01-10T07:14:59;-4.20;99.90
16767;DHT22;8501;49.926;8.404;2024-01-10T07:17:24;-4.20;99.90
16767;DHT22;8501;49.926;8.404;2024-01-10T07:19:50;-4.20;99.90
16767;DHT22;8501;49.926;8.404;2024-01-10T07:22:15;-4.20;99.90
16767;DHT22;8501;49.926;8.404;2024-01-10T07:24:43;-4.10;99.90
16767;DHT22;8501;49.926;8.404;2024-01-10T07:27:08;-4.00;99.90
16767;DHT22;8501;49.926;8.404;2024-01-10T07:29:35;-4.00;99.90
16767;DHT22;8501;49.926;8.404;2024-01-10T07:32:00;-4.00;99.90
16767;DHT22;8501;49.926;8.404;2024-01-10T07:34:26;-4.00;99.90
16767;DHT22;8501;49.926;8.404;2024-01-10T07:36:51;-3.90;99.90
16767;DHT22;8501;49.926;8.404;2024-01-10T07:39:19;-3.90;99.90
16767;DHT22;8501;49.926;8.404;2024-01-10T07:41:44;-3.90;99.90
16767;DHT22;8501;49.926;8.404;2024-01-10T07:44:10;-3.90;99.90
16767;DHT22;8501;49.926;8.404;2024-01-10T07:46:36;-4.00;99.90
16767;DHT22;8501;49.926;8.404;2024-01-10T07:49:03;-4.00;99.90
16767;DHT22;8501;49.926;8.404;2024-01-10T07:51:30;-4.00;99.90
16767;DHT22;8501;49.926;8.404;2024-01-10T07:53:56;-4.00;99.90
16767;DHT22;8501;49.926;8.404;2024-01-10T07:56:21;-3.90;99.90
16767;DHT22;8501;49.926;8.404;2024-01-10T07:58:47;-3.90;99.90
16767;DHT22;8501;49.926;8.404;2024-01-10T08:01:14;-3.90;99.90
16767;DHT22;8501;49.926;8.404;2024-01-10T08:03:40;-3.90;99.90
16767;DHT22;8501;49.926;8.404;2024-01-10T08:06:06;-3.80;99.90
16767;DHT22;8501;49.926;8.404;2024-01-10T08:08:32;-3.70;99.90
16767;DHT22;8501;49.926;8.404;2024-01-10T08:10:57;-3.70;99.90
16767;DHT22;8501;49.926;8.404;2024-01-10T08:13:23;-3.70;99.90
16767;DHT22;8501;49.926;8.404;2024-01-10T08:15:49;-3.60;99.90
16767;DHT22;8501;49.926;8.404;2024-01-10T08:18:15;-3.60;99.90
16767;DHT22;8501;49.926;8.404;2024-01-10T08:20:40;-3.60;99.90
16767;DHT22;8501;49.926;8.404;2024-01-10T08:23:06;-3.60;99.90
16767;DHT22;8501;49.926;8.404;2024-01-10T08:25:31;-3.60;99.90
16767;DHT22;8501;49.926;8.404;2024-01-10T08:27:57;-3.50;99.90
16767;DHT22;8501;49.926;8.404;2024-01-10T08:30:23;-3.40;99.90
16767;DHT22;8501;49.926;8.404;2024-01-10T08:32:49;-3.50;99.90
16767;DHT22;8501;49.926;8.404;2024-01-10T08:35:15;-3.40;99.90
16767;DHT22;8501;49.926;8.404;2024-01-10T08:37:40;-3.40;99.90
16767;DHT22;8501;49.926;8.404;2024-01-10T08:40:11;-3.40;99.90
16767;DHT22;8501;49.926;8.404;2024-01-10T08:42:39;-3.40;99.90
16767;DHT22;8501;49.926;8.404;2024-01-10T08:45:05;-3.40;99.90
16767;DHT22;8501;49.926;8.404;2024-01-10T08:47:31;-3.30;99.90
16767;DHT22;8501;49.926;8.404;2024-01-10T08:49:58;-3.20;99.90
16767;DHT22;8501;49.926;8.404;2024-01-10T08:52:24;-3.30;99.90
16767;DHT22;8501;49.926;8.404;2024-01-10T08:54:49;-3.20;99.90
16767;DHT22;8501;49.926;8.404;2024-01-10T08:57:15;-3.20;99.90
16767;DHT22;8501;49.926;8.404;2024-01-10T08:59:43;-3.20;99.90
16767;DHT22;8501;49.926;8.404;2024-01-10T09:02:09;-3.10;99.90
16767;DHT22;8501;49.926;8.404;2024-01-10T09:04:34;-3.00;99.90
16767;DHT22;8501;49.926;8.404;2024-01-10T09:07:00;-3.00;99.90
16767;DHT22;8501;49.926;8.404;2024-01-10T09:09:25;-3.00;99.90
16767;DHT22;8501;49.926;8.404;2024-01-10T09:11:51;-3.00;99.90
16767;DHT22;8501;49.926;8.404;2024-01-10T09:14:16;-2.90;99.90
16767;DHT22;8501;49.926;8.404;2024-01-10T09:16:42;-2.90;99.90
16767;DHT22;8501;49.926;8.404;2024-01-10T09:19:07;-2.90;99.90
16767;DHT22;8501;49.926;8.404;2024-01-10T09:21:35;-2.80;99.90
16767;DHT22;8501;49.926;8.404;2024-01-10T09:24:00;-2.80;99.90
16767;DHT22;8501;49.926;8.404;2024-01-10T09:26:26;-2.80;99.90
16767;DHT22;8501;49.926;8.404;2024-01-10T09:28:51;-2.80;99.90
16767;DHT22;8501;49.926;8.404;2024-01-10T09:31:17;-2.70;99.90
16767;DHT22;8501;49.926;8.404;2024-01-10T09:33:42;-2.70;99.90
16767;DHT22;8501;49.926;8.404;2024-01-10T09:36:08;-2.70;99.90
16767;DHT22;8501;49.926;8.404;2024-01-10T09:38:37;-2.70;99.90
16767;DHT22;8501;49.926;8.404;2024-01-10T09:41:04;-2.60;99.90
16767;DHT22;8501;49.926;8.404;2024-01-10T09:43:30;-2.60;99.90
16767;DHT22;8501;49.926;8.404;2024-01-10T09:45:58;-2.60;99.90
16767;DHT22;8501;49.926;8.404;2024-01-10T09:48:24;-2.50;99.90
16767;DHT22;8501;49.926;8.404;2024-01-10T09:50:51;-2.50;99.90
16767;DHT22;8501;49.926;8.404;2024-01-10T09:53:27;-2.50;99.90
16767;DHT22;8501;49.926;8.404;2024-01-10T09:55:53;-2.50;99.90
16767;DHT22;8501;49.926;8.404;2024-01-10T09:58:25;-2.50;99.90
16767;DHT22;8501;49.926;8.404;2024-01-10T10:00:51;-2.50;99.90
16767;DHT22;8501;49.926;8.404;2024-01-10T10:03:18;-2.50;99.90
16767;DHT22;8501;49.926;8.404;2024-01-10T10:05:44;-2.40;99.90
16767;DHT22;8501;49.926;8.404;2024-01-10T10:08:12;-2.40;99.90
16767;DHT22;8501;49.926;8.404;2024-01-10T10:10:39;-2.40;99.90
16767;DHT22;8501;49.926;8.404;2024-01-10T10:13:10;-2.30;99.90
16767;DHT22;8501;49.926;8.404;2024-01-10T10:15:39;-2.30;99.90
16767;DHT22;8501;49.926;8.404;2024-01-10T10:18:04;-2.30;99.90
16767;DHT22;8501;49.926;8.404;2024-01-10T10:20:30;-2.30;99.90
16767;DHT22;8501;49.926;8.404;2024-01-10T10:23:07;-2.30;99.90
16767;DHT22;8501;49.926;8.404;2024-01-10T10:25:37;-2.30;99.90
16767;DHT22;8501;49.926;8.404;2024-01-10T10:28:05;-2.20;99.90
16767;DHT22;8501;49.926;8.404;2024-01-10T10:30:31;-2.20;99.90
16767;DHT22;8501;49.926;8.404;2024-01-10T10:32:57;-2.20;99.90
16767;DHT22;8501;49.926;8.404;2024-01-10T10:35:23;-2.20;99.90
16767;DHT22;8501;49.926;8.404;2024-01-10T10:37:50;-2.10;99.90
16767;DHT22;8501;49.926;8.404;2024-01-10T10:40:16;-2.10;99.90
16767;DHT22;8501;49.926;8.404;2024-01-10T10:42:47;-2.10;99.90
16767;DHT22;8501;49.926;8.404;2024-01-10T10:45:18;-2.00;99.90
16767;DHT22;8501;49.926;8.404;2024-01-10T10:47:46;-2.10;99.90
16767;DHT22;8501;49.926;8.404;2024-01-10T10:50:22;-2.00;99.90
16767;DHT22;8501;49.926;8.404;2024-01-10T10:52:48;-2.00;99.90
16767;DHT22;8501;49.926;8.404;2024-01-10T10:55:16;-2.00;99.90
16767;DHT22;8501;49.926;8.404;2024-01-10T10:57:46;-2.00;99.90
16767;DHT22;8501;49.926;8.404;2024-01-10T11:00:18;-1.90;99.90
16767;DHT22;8501;49.926;8.404;2024-01-10T11:02:44;-1.80;99.90
16767;DHT22;8501;49.926;8.404;2024-01-10T11:05:10;-1.80;99.90
16767;DHT22;8501;49.926;8.404;2024-01-10T11:07:41;-1.70;99.90
16767;DHT22;8501;49.926;8.404;2024-01-10T11:10:10;-1.60;99.90
16767;DHT22;8501;49.926;8.404;2024-01-10T11:12:53;-1.60;99.90
16767;DHT22;8501;49.926;8.404;2024-01-10T11:20:50;-1.30;99.90
16767;DHT22;8501;49.926;8.404;2024-01-10T11:23:41;-1.30;99.90
16767;DHT22;8501;49.926;8.404;2024-01-10T11:26:09;-1.20;99.90
16767;DHT22;8501;49.926;8.404;2024-01-10T11:28:36;-1.10;99.90
16767;DHT22;8501;49.926;8.404;2024-01-10T11:31:06;-1.10;99.90
16767;DHT22;8501;49.926;8.404;2024-01-10T11:33:34;-1.00;99.90
16767;DHT22;8501;49.926;8.404;2024-01-10T11:36:12;-0.90;99.90
16767;DHT22;8501;49.926;8.404;2024-01-10T11:39:03;-0.90;99.90
16767;DHT22;8501;49.926;8.404;2024-01-10T11:41:34;-0.80;99.90
16767;DHT22;8501;49.926;8.404;2024-01-10T11:46:52;-0.80;99.90
16767;DHT22;8501;49.926;8.404;2024-01-10T11:49:19;-0.80;99.90
16767;DHT22;8501;49.926;8.404;2024-01-10T11:51:46;-0.80;99.90
16767;DHT22;8501;49.926;8.404;2024-01-10T11:57:22;-0.80;99.90
16767;DHT22;8501;49.926;8.404;2024-01-10T11:59:50;-0.80;99.90
16767;DHT22;8501;49.926;8.404;2024-01-10T12:02:17;-0.70;99.90
16767;DHT22;8501;49.926;8.404;2024-01-10T12:04:43;-0.70;99.90
16767;DHT22;8501;49.926;8.404;2024-01-10T12:07:09;-0.70;99.90
16767;DHT22;8501;49.926;8.404;2024-01-10T12:09:35;-0.70;99.90
16767;DHT22;8501;49.926;8.404;2024-01-10T12:12:04;-0.60;99.90
16767;DHT22;8501;49.926;8.404;2024-01-10T12:14:30;-0.60;99.90
16767;DHT22;8501;49.926;8.404;2024-01-10T12:16:57;-0.50;99.90
16767;DHT22;8501;49.926;8.404;2024-01-10T12:19:25;-0.50;99.90
16767;DHT22;8501;49.926;8.404;2024-01-10T12:21:51;-0.40;99.90
16767;DHT22;8501;49.926;8.404;2024-01-10T12:24:18;-0.40;99.90
16767;DHT22;8501;49.926;8.404;2024-01-10T12:26:47;-0.30;99.90
16767;DHT22;8501;49.926;8.404;2024-01-10T12:29:17;-0.20;99.90
16767;DHT22;8501;49.926;8.404;2024-01-10T12:31:43;-0.20;99.90
16767;DHT22;8501;49.926;8.404;2024-01-10T12:34:11;-0.20;99.90
16767;DHT22;8501;49.926;8.404;2024-01-10T12:36:36;-0.20;99.90
16767;DHT22;8501;49.926;8.404;2024-01-10T12:39:02;-0.10;99.90
16767;DHT22;8501;49.926;8.404;2024-01-10T12:41:28;0.00;99.90
16767;DHT22;8501;49.926;8.404;2024-01-10T12:43:54;0.00;99.90
16767;DHT22;8501;49.926;8.404;2024-01-10T12:46:21;0.00;99.90
16767;DHT22;8501;49.926;8.404;2024-01-10T12:48:59;0.10;99.90
16767;DHT22;8501;49.926;8.404;2024-01-10T12:51:29;0.10;99.90
16767;DHT22;8501;49.926;8.404;2024-01-10T12:53:56;0.10;99.90
16767;DHT22;8501;49.926;8.404;2024-01-10T12:56:24;0.10;99.90
16767;DHT22;8501;49.926;8.404;2024-01-10T12:58:49;0.10;99.90
16767;DHT22;8501;49.926;8.404;2024-01-10T13:01:15;0.10;99.90
16767;DHT22;8501;49.926;8.404;2024-01-10T13:03:41;0.10;99.90
16767;DHT22;8501;49.926;8.404;2024-01-10T13:06:06;0.10;99.90
16767;DHT22;8501;49.926;8.404;2024-01-10T13:08:32;0.10;99.90
16767;DHT22;8501;49.926;8.404;2024-01-10T13:10:58;0.10;99.90
16767;DHT22;8501;49.926;8.404;2024-01-10T13:13:25;0.20;99.90
16767;DHT22;8501;49.926;8.404;2024-01-10T13:15:51;0.20;99.90
16767;DHT22;8501;49.926;8.404;2024-01-10T13:18:17;0.20;99.90
16767;DHT22;8501;49.926;8.404;2024-01-10T13:20:43;0.20;99.90
16767;DHT22;8501;49.926;8.404;2024-01-10T13:23:09;0.10;99.90
16767;DHT22;8501;49.926;8.404;2024-01-10T13:25:35;0.20;99.90
16767;DHT22;8501;49.926;8.404;2024-01-10T13:28:03;0.20;99.90
16767;DHT22;8501;49.926;8.404;2024-01-10T13:30:28;0.20;99.90
16767;DHT22;8501;49.926;8.404;2024-01-10T13:32:54;0.20;99.90
16767;DHT22;8501;49.926;8.404;2024-01-10T13:35:19;0.20;99.90
16767;DHT22;8501;49.926;8.404;2024-01-10T13:37:45;0.20;99.90
16767;DHT22;8501;49.926;8.404;2024-01-10T13:40:11;0.20;99.90
16767;DHT22;8501;49.926;8.404;2024-01-10T13:42:40;0.20;99.90
16767;DHT22;8501;49.926;8.404;2024-01-10T13:45:07;0.20;99.90
16767;DHT22;8501;49.926;8.404;2024-01-10T13:47:39;0.20;99.90
16767;DHT22;8501;49.926;8.404;2024-01-10T13:50:06;0.20;99.90
16767;DHT22;8501;49.926;8.404;2024-01-10T13:52:35;0.20;99.90
16767;DHT22;8501;49.926;8.404;2024-01-10T13:55:01;0.10;99.90
16767;DHT22;8501;49.926;8.404;2024-01-10T13:57:30;0.10;99.90
16767;DHT22;8501;49.926;8.404;2024-01-10T13:59:55;0.20;99.90
16767;DHT22;8501;49.926;8.404;2024-01-10T14:02:22;0.10;99.90
16767;DHT22;8501;49.926;8.404;2024-01-10T14:04:48;0.10;99.90
16767;DHT22;8501;49.926;8.404;2024-01-10T14:07:13;0.10;99.90
16767;DHT22;8501;49.926;8.404;2024-01-10T14:09:39;0.10;99.90
16767;DHT22;8501;49.926;8.404;2024-01-10T14:12:05;0.10;99.90
16767;DHT22;8501;49.926;8.404;2024-01-10T14:14:31;0.20;99.90
16767;DHT22;8501;49.926;8.404;2024-01-10T14:16:59;0.10;99.90
16767;DHT22;8501;49.926;8.404;2024-01-10T14:19:25;0.10;99.90
16767;DHT22;8501;49.926;8.404;2024-01-10T14:21:51;0.10;99.90
16767;DHT22;8501;49.926;8.404;2024-01-10T14:24:17;0.10;99.90
16767;DHT22;8501;49.926;8.404;2024-01-10T14:26:43;0.10;99.90
16767;DHT22;8501;49.926;8.404;2024-01-10T14:29:09;0.10;99.90
16767;DHT22;8501;49.926;8.404;2024-01-10T14:31:35;0.10;99.90
16767;DHT22;8501;49.926;8.404;2024-01-10T14:34:00;0.10;99.90
16767;DHT22;8501;49.926;8.404;2024-01-10T14:36:26;0.10;99.90
16767;DHT22;8501;49.926;8.404;2024-01-10T14:38:51;0.10;99.90
16767;DHT22;8501;49.926;8.404;2024-01-10T14:41:17;0.10;99.90
16767;DHT22;8501;49.926;8.404;2024-01-10T14:43:42;0.10;99.90
16767;DHT22;8501;49.926;8.404;2024-01-10T14:46:11;0.20;99.90
16767;DHT22;8501;49.926;8.404;2024-01-10T14:48:37;0.50;99.90
16767;DHT22;8501;49.926;8.404;2024-01-10T14:51:02;0.20;99.90
16767;DHT22;8501;49.926;8.404;2024-01-10T14:53:29;0.20;99.90
16767;DHT22;8501;49.926;8.404;2024-01-10T14:55:55;0.20;99.90
16767;DHT22;8501;49.926;8.404;2024-01-10T14:58:21;0.20;99.90
16767;DHT22;8501;49.926;8.404;2024-01-10T15:00:46;0.20;99.90
16767;DHT22;8501;49.926;8.404;2024-01-10T15:03:12;0.20;99.90
16767;DHT22;8501;49.926;8.404;2024-01-10T15:05:40;0.20;99.90
16767;DHT22;8501;49.926;8.404;2024-01-10T15:08:09;0.20;99.90
16767;DHT22;8501;49.926;8.404;2024-01-10T15:10:36;0.20;99.90
16767;DHT22;8501;49.926;8.404;2024-01-10T15:13:02;0.10;99.90
16767;DHT22;8501;49.926;8.404;2024-01-10T15:15:29;0.10;99.90
16767;DHT22;8501;49.926;8.404;2024-01-10T15:17:54;0.10;99.90
16767;DHT22;8501;49.926;8.404;2024-01-10T15:20:20;0.10;99.90
16767;DHT22;8501;49.926;8.404;2024-01-10T15:22:46;0.10;99.90
16767;DHT22;8501;49.926;8.404;2024-01-10T15:25:13;0.10;99.90
16767;DHT22;8501;49.926;8.404;2024-01-10T15:27:38;0.10;99.90
16767;DHT22;8501;49.926;8.404;2024-01-10T15:30:04;0.10;99.90
16767;DHT22;8501;49.926;8.404;2024-01-10T15:32:31;0.10;99.90
16767;DHT22;8501;49.926;8.404;2024-01-10T15:34:56;0.00;99.90
16767;DHT22;8501;49.926;8.404;2024-01-10T15:37:23;0.00;99.90
16767;DHT22;8501;49.926;8.404;2024-01-10T15:39:48;0.00;99.90
16767;DHT22;8501;49.926;8.404;2024-01-10T15:42:14;0.00;99.90
16767;DHT22;8501;49.926;8.404;2024-01-10T15:44:41;-0.10;99.90
16767;DHT22;8501;49.926;8.404;2024-01-10T15:47:06;-0.10;99.90
16767;DHT22;8501;49.926;8.404;2024-01-10T15:49:32;-0.10;99.90
16767;DHT22;8501;49.926;8.404;2024-01-10T15:51:58;-0.10;99.90
16767;DHT22;8501;49.926;8.404;2024-01-10T15:54:23;-0.20;99.90
16767;DHT22;8501;49.926;8.404;2024-01-10T15:56:49;-0.20;99.90